sensor_id;sensor_type;location;lat;lon;timestamp;pressure;altitude;pressure_sealevel;temperature;humidity
14067;BME280;7108;42.684;23.350;2023-03-20T00:00:44;95669.94;;;7.70;100.00
14067;BME280;7108;42.684;23.350;2023-03-20T00:03:12;95674.25;;;7.63;100.00
14067;BME280;7108;42.684;23.350;2023-03-20T00:05:38;95670.47;;;7.64;100.00
14067;BME280;7108;42.684;23.350;2023-03-20T00:08:04;95665.50;;;7.54;100.00
14067;BME280;7108;42.684;23.350;2023-03-20T00:10:35;95649.97;;;7.39;100.00
14067;BME280;7108;42.684;23.350;2023-03-20T00:13:03;95671.56;;;7.42;100.00
14067;BME280;7108;42.684;23.350;2023-03-20T00:15:35;95670.19;;;7.36;100.00
14067;BME280;7108;42.684;23.350;2023-03-20T00:18:03;95655.91;;;7.24;100.00
14067;BME280;7108;42.684;23.350;2023-03-20T00:20:36;95668.28;;;7.37;100.00
14067;BME280;7108;42.684;23.350;2023-03-20T00:23:02;95637.50;;;7.22;100.00
14067;BME280;7108;42.684;23.350;2023-03-20T00:25:29;95648.22;;;7.22;100.00
14067;BME280;7108;42.684;23.350;2023-03-20T00:27:55;95648.66;;;7.04;100.00
14067;BME280;7108;42.684;23.350;2023-03-20T00:30:26;95664.63;;;7.21;100.00
14067;BME280;7108;42.684;23.350;2023-03-20T00:32:55;95653.44;;;7.19;100.00
14067;BME280;7108;42.684;23.350;2023-03-20T00:35:27;95653.00;;;7.17;100.00
14067;BME280;7108;42.684;23.350;2023-03-20T00:37:53;95647.81;;;7.12;100.00
14067;BME280;7108;42.684;23.350;2023-03-20T00:40:20;95647.50;;;7.14;100.00
14067;BME280;7108;42.684;23.350;2023-03-20T00:42:49;95649.06;;;7.15;100.00
14067;BME280;7108;42.684;23.350;2023-03-20T00:45:18;95639.97;;;7.07;100.00
14067;BME280;7108;42.684;23.350;2023-03-20T00:47:47;95652.91;;;7.05;100.00
14067;BME280;7108;42.684;23.350;2023-03-20T00:50:18;95636.09;;;6.96;100.00
14067;BME280;7108;42.684;23.350;2023-03-20T00:52:47;95651.66;;;7.03;100.00
14067;BME280;7108;42.684;23.350;2023-03-20T00:55:13;95635.63;;;6.94;100.00
14067;BME280;7108;42.684;23.350;2023-03-20T00:58:11;95646.78;;;7.05;100.00
14067;BME280;7108;42.684;23.350;2023-03-20T01:00:41;95625.44;;;6.88;100.00
14067;BME280;7108;42.684;23.350;2023-03-20T01:03:15;95647.41;;;7.02;100.00
14067;BME280;7108;42.684;23.350;2023-03-20T01:05:41;95636.25;;;7.00;100.00
14067;BME280;7108;42.684;23.350;2023-03-20T01:08:19;95613.63;;;6.89;100.00
14067;BME280;7108;42.684;23.350;2023-03-20T01:10:47;95623.19;;;6.90;100.00
14067;BME280;7108;42.684;23.350;2023-03-20T01:13:22;95618.84;;;6.85;100.00
14067;BME280;7108;42.684;23.350;2023-03-20T01:15:48;95616.16;;;6.85;100.00
14067;BME280;7108;42.684;23.350;2023-03-20T01:18:15;95632.47;;;6.92;100.00
14067;BME280;7108;42.684;23.350;2023-03-20T01:20:41;95623.69;;;6.92;100.00
14067;BME280;7108;42.684;23.350;2023-03-20T01:23:06;95612.56;;;6.81;100.00
14067;BME280;7108;42.684;23.350;2023-03-20T01:25:32;95606.16;;;6.74;100.00
14067;BME280;7108;42.684;23.350;2023-03-20T01:27:58;95593.41;;;6.71;100.00
14067;BME280;7108;42.684;23.350;2023-03-20T01:30:27;95632.66;;;6.87;100.00
14067;BME280;7108;42.684;23.350;2023-03-20T01:32:53;95608.03;;;6.73;100.00
14067;BME280;7108;42.684;23.350;2023-03-20T01:35:22;95621.28;;;6.70;100.00
14067;BME280;7108;42.684;23.350;2023-03-20T01:37:49;95622.03;;;6.79;100.00
14067;BME280;7108;42.684;23.350;2023-03-20T01:40:34;95626.00;;;6.73;100.00
14067;BME280;7108;42.684;23.350;2023-03-20T01:43:12;95623.38;;;6.64;100.00
14067;BME280;7108;42.684;23.350;2023-03-20T01:45:56;95626.47;;;6.66;100.00
14067;BME280;7108;42.684;23.350;2023-03-20T01:48:26;95642.84;;;6.73;100.00
14067;BME280;7108;42.684;23.350;2023-03-20T01:50:59;95623.25;;;6.52;100.00
14067;BME280;7108;42.684;23.350;2023-03-20T01:53:26;95649.47;;;6.67;100.00
14067;BME280;7108;42.684;23.350;2023-03-20T01:55:55;95641.31;;;6.64;100.00
14067;BME280;7108;42.684;23.350;2023-03-20T01:58:30;95643.72;;;6.57;100.00
14067;BME280;7108;42.684;23.350;2023-03-20T02:01:00;95624.72;;;6.42;100.00
14067;BME280;7108;42.684;23.350;2023-03-20T02:03:28;95629.75;;;6.43;100.00
14067;BME280;7108;42.684;23.350;2023-03-20T02:05:55;95636.63;;;6.52;100.00
14067;BME280;7108;42.684;23.350;2023-03-20T02:08:31;95630.97;;;6.54;100.00
14067;BME280;7108;42.684;23.350;2023-03-20T02:11:01;95612.31;;;6.37;100.00
14067;BME280;7108;42.684;23.350;2023-03-20T02:13:32;95636.00;;;6.55;100.00
14067;BME280;7108;42.684;23.350;2023-03-20T02:16:06;95629.84;;;6.55;100.00
14067;BME280;7108;42.684;23.350;2023-03-20T02:18:35;95617.78;;;6.41;100.00
14067;BME280;7108;42.684;23.350;2023-03-20T02:30:02;95635.41;;;6.42;100.00
14067;BME280;7108;42.684;23.350;2023-03-20T02:35:52;95643.03;;;6.31;100.00
14067;BME280;7108;42.684;23.350;2023-03-20T02:44:01;95643.94;;;6.35;100.00
14067;BME280;7108;42.684;23.350;2023-03-20T02:46:37;95632.16;;;6.36;100.00
14067;BME280;7108;42.684;23.350;2023-03-20T02:52:55;95604.69;;;6.19;100.00
14067;BME280;7108;42.684;23.350;2023-03-20T02:54:53;95620.53;;;6.32;100.00
14067;BME280;7108;42.684;23.350;2023-03-20T03:00:24;95623.06;;;6.29;100.00
14067;BME280;7108;42.684;23.350;2023-03-20T03:03:08;95617.41;;;6.22;100.00
14067;BME280;7108;42.684;23.350;2023-03-20T03:05:58;95615.19;;;6.24;100.00
14067;BME280;7108;42.684;23.350;2023-03-20T03:08:34;95627.31;;;6.30;100.00
14067;BME280;7108;42.684;23.350;2023-03-20T03:11:06;95622.25;;;6.28;100.00
14067;BME280;7108;42.684;23.350;2023-03-20T03:13:36;95619.13;;;6.26;100.00
14067;BME280;7108;42.684;23.350;2023-03-20T03:16:09;95601.28;;;6.01;100.00
14067;BME280;7108;42.684;23.350;2023-03-20T03:18:37;95616.81;;;6.16;100.00
14067;BME280;7108;42.684;23.350;2023-03-20T03:21:05;95597.44;;;6.11;100.00
14067;BME280;7108;42.684;23.350;2023-03-20T03:23:38;95616.81;;;6.16;100.00
14067;BME280;7108;42.684;23.350;2023-03-20T03:26:05;95611.19;;;5.92;100.00
14067;BME280;7108;42.684;23.350;2023-03-20T03:28:39;95617.94;;;5.98;100.00
14067;BME280;7108;42.684;23.350;2023-03-20T03:31:11;95581.00;;;5.75;100.00
14067;BME280;7108;42.684;23.350;2023-03-20T03:33:40;95588.91;;;5.80;100.00
14067;BME280;7108;42.684;23.350;2023-03-20T03:36:24;95623.16;;;5.95;100.00
14067;BME280;7108;42.684;23.350;2023-03-20T03:41:51;95632.41;;;5.97;100.00
14067;BME280;7108;42.684;23.350;2023-03-20T03:44:26;95638.09;;;5.96;100.00
14067;BME280;7108;42.684;23.350;2023-03-20T03:46:57;95612.94;;;5.88;100.00
14067;BME280;7108;42.684;23.350;2023-03-20T03:49:35;95627.69;;;6.03;100.00
14067;BME280;7108;42.684;23.350;2023-03-20T03:52:05;95601.34;;;5.76;100.00
14067;BME280;7108;42.684;23.350;2023-03-20T03:54:41;95631.97;;;5.87;100.00
14067;BME280;7108;42.684;23.350;2023-03-20T03:57:09;95611.38;;;5.87;100.00
14067;BME280;7108;42.684;23.350;2023-03-20T03:59:42;95628.97;;;5.88;100.00
14067;BME280;7108;42.684;23.350;2023-03-20T04:02:10;95624.41;;;5.89;100.00
14067;BME280;7108;42.684;23.350;2023-03-20T04:04:41;95634.34;;;5.88;100.00
14067;BME280;7108;42.684;23.350;2023-03-20T04:07:08;95620.34;;;5.75;100.00
14067;BME280;7108;42.684;23.350;2023-03-20T04:09:34;95612.81;;;5.77;100.00
14067;BME280;7108;42.684;23.350;2023-03-20T04:12:02;95603.69;;;5.61;100.00
14067;BME280;7108;42.684;23.350;2023-03-20T04:14:28;95622.38;;;5.69;100.00
14067;BME280;7108;42.684;23.350;2023-03-20T04:16:53;95588.44;;;5.53;100.00
14067;BME280;7108;42.684;23.350;2023-03-20T04:19:19;95595.97;;;5.68;100.00
14067;BME280;7108;42.684;23.350;2023-03-20T04:21:44;95618.75;;;5.74;100.00
14067;BME280;7108;42.684;23.350;2023-03-20T04:24:10;95580.28;;;5.58;100.00
14067;BME280;7108;42.684;23.350;2023-03-20T04:26:36;95584.38;;;5.47;100.00
14067;BME280;7108;42.684;23.350;2023-03-20T04:29:02;95610.91;;;5.60;100.00
14067;BME280;7108;42.684;23.350;2023-03-20T04:31:33;95607.31;;;5.56;100.00
14067;BME280;7108;42.684;23.350;2023-03-20T04:33:59;95573.69;;;5.30;100.00
14067;BME280;7108;42.684;23.350;2023-03-20T04:36:25;95591.13;;;5.53;100.00
14067;BME280;7108;42.684;23.350;2023-03-20T04:38:50;95609.34;;;5.59;100.00
14067;BME280;7108;42.684;23.350;2023-03-20T04:41:16;95618.00;;;5.65;100.00
14067;BME280;7108;42.684;23.350;2023-03-20T04:43:45;95604.50;;;5.53;100.00
14067;BME280;7108;42.684;23.350;2023-03-20T04:46:10;95618.00;;;5.65;100.00
14067;BME280;7108;42.684;23.350;2023-03-20T04:48:36;95625.53;;;5.63;100.00
14067;BME280;7108;42.684;23.350;2023-03-20T04:51:01;95633.38;;;5.68;100.00
14067;BME280;7108;42.684;23.350;2023-03-20T04:53:27;95636.66;;;5.73;100.00
14067;BME280;7108;42.684;23.350;2023-03-20T04:55:52;95634.19;;;5.77;100.00
14067;BME280;7108;42.684;23.350;2023-03-20T04:58:18;95628.97;;;5.72;100.00
14067;BME280;7108;42.684;23.350;2023-03-20T05:00:43;95618.94;;;5.60;100.00
14067;BME280;7108;42.684;23.350;2023-03-20T05:03:12;95658.25;;;5.77;100.00
14067;BME280;7108;42.684;23.350;2023-03-20T05:05:38;95639.50;;;5.68;100.00
14067;BME280;7108;42.684;23.350;2023-03-20T05:08:04;95652.28;;;5.80;100.00
14067;BME280;7108;42.684;23.350;2023-03-20T05:10:31;95622.53;;;5.64;100.00
14067;BME280;7108;42.684;23.350;2023-03-20T05:12:56;95654.47;;;5.86;100.00
14067;BME280;7108;42.684;23.350;2023-03-20T05:15:22;95619.38;;;5.71;100.00
14067;BME280;7108;42.684;23.350;2023-03-20T05:17:47;95627.56;;;5.91;100.00
14067;BME280;7108;42.684;23.350;2023-03-20T05:20:14;95658.19;;;6.10;100.00
14067;BME280;7108;42.684;23.350;2023-03-20T05:22:40;95660.38;;;6.17;100.00
14067;BME280;7108;42.684;23.350;2023-03-20T05:25:05;95637.13;;;6.09;100.00
14067;BME280;7108;42.684;23.350;2023-03-20T05:27:31;95620.00;;;6.01;100.00
14067;BME280;7108;42.684;23.350;2023-03-20T05:29:57;95644.47;;;6.20;100.00
14067;BME280;7108;42.684;23.350;2023-03-20T05:32:22;95640.84;;;6.25;100.00
14067;BME280;7108;42.684;23.350;2023-03-20T05:34:48;95614.88;;;6.25;100.00
14067;BME280;7108;42.684;23.350;2023-03-20T05:37:14;95657.06;;;6.65;100.00
14067;BME280;7108;42.684;23.350;2023-03-20T05:39:39;95652.06;;;6.84;100.00
14067;BME280;7108;42.684;23.350;2023-03-20T05:42:05;95659.59;;;7.19;100.00
14067;BME280;7108;42.684;23.350;2023-03-20T05:44:30;95657.06;;;7.64;100.00
14067;BME280;7108;42.684;23.350;2023-03-20T05:46:55;95624.09;;;7.95;100.00
14067;BME280;7108;42.684;23.350;2023-03-20T05:49:21;95655.59;;;8.63;100.00
14067;BME280;7108;42.684;23.350;2023-03-20T05:51:47;95655.72;;;9.02;100.00
14067;BME280;7108;42.684;23.350;2023-03-20T05:54:12;95645.03;;;9.29;100.00
14067;BME280;7108;42.684;23.350;2023-03-20T05:56:37;95648.88;;;9.56;100.00
14067;BME280;7108;42.684;23.350;2023-03-20T05:59:03;95643.03;;;9.66;100.00
14067;BME280;7108;42.684;23.350;2023-03-20T06:01:28;95635.00;;;9.54;100.00
14067;BME280;7108;42.684;23.350;2023-03-20T06:03:54;95657.19;;;9.51;100.00
14067;BME280;7108;42.684;23.350;2023-03-20T06:06:20;95656.44;;;9.50;100.00
14067;BME280;7108;42.684;23.350;2023-03-20T06:08:47;95652.06;;;9.46;100.00
14067;BME280;7108;42.684;23.350;2023-03-20T06:11:13;95620.84;;;9.29;100.00
14067;BME280;7108;42.684;23.350;2023-03-20T06:13:38;95653.28;;;9.48;100.00
14067;BME280;7108;42.684;23.350;2023-03-20T06:16:04;95654.84;;;9.49;100.00
14067;BME280;7108;42.684;23.350;2023-03-20T06:18:30;95652.16;;;9.49;100.00
14067;BME280;7108;42.684;23.350;2023-03-20T06:20:56;95644.81;;;9.34;100.00
14067;BME280;7108;42.684;23.350;2023-03-20T06:23:22;95646.28;;;9.32;100.00
14067;BME280;7108;42.684;23.350;2023-03-20T06:25:48;95642.69;;;9.28;100.00
14067;BME280;7108;42.684;23.350;2023-03-20T06:28:14;95649.19;;;9.27;100.00
14067;BME280;7108;42.684;23.350;2023-03-20T06:30:39;95650.41;;;9.29;100.00
14067;BME280;7108;42.684;23.350;2023-03-20T06:33:05;95637.56;;;9.11;100.00
14067;BME280;7108;42.684;23.350;2023-03-20T06:35:31;95654.91;;;9.25;100.00
14067;BME280;7108;42.684;23.350;2023-03-20T06:37:58;95651.75;;;9.23;100.00
14067;BME280;7108;42.684;23.350;2023-03-20T06:40:23;95653.09;;;9.29;100.00
14067;BME280;7108;42.684;23.350;2023-03-20T06:42:49;95663.16;;;9.44;100.00
14067;BME280;7108;42.684;23.350;2023-03-20T06:45:15;95639.63;;;9.41;100.00
14067;BME280;7108;42.684;23.350;2023-03-20T06:47:41;95635.38;;;9.40;100.00
14067;BME280;7108;42.684;23.350;2023-03-20T06:50:07;95635.53;;;9.59;100.00
14067;BME280;7108;42.684;23.350;2023-03-20T06:52:33;95645.19;;;9.60;100.00
14067;BME280;7108;42.684;23.350;2023-03-20T06:55:00;95615.34;;;9.38;100.00
14067;BME280;7108;42.684;23.350;2023-03-20T06:57:28;95637.03;;;9.45;100.00
14067;BME280;7108;42.684;23.350;2023-03-20T06:59:54;95621.22;;;9.55;100.00
14067;BME280;7108;42.684;23.350;2023-03-20T07:02:19;95629.78;;;9.73;100.00
14067;BME280;7108;42.684;23.350;2023-03-20T07:04:45;95635.44;;;9.83;100.00
14067;BME280;7108;42.684;23.350;2023-03-20T07:07:11;95638.75;;;10.04;100.00
14067;BME280;7108;42.684;23.350;2023-03-20T07:09:37;95638.34;;;10.17;100.00
14067;BME280;7108;42.684;23.350;2023-03-20T07:12:02;95625.44;;;10.23;100.00
14067;BME280;7108;42.684;23.350;2023-03-20T07:14:29;95629.34;;;10.25;100.00
14067;BME280;7108;42.684;23.350;2023-03-20T07:16:54;95635.56;;;10.41;100.00
14067;BME280;7108;42.684;23.350;2023-03-20T07:19:20;95623.47;;;10.50;100.00
14067;BME280;7108;42.684;23.350;2023-03-20T07:21:46;95633.91;;;10.52;100.00
14067;BME280;7108;42.684;23.350;2023-03-20T07:24:12;95605.66;;;10.46;100.00
14067;BME280;7108;42.684;23.350;2023-03-20T07:26:38;95610.25;;;10.61;100.00
14067;BME280;7108;42.684;23.350;2023-03-20T07:29:05;95624.44;;;10.73;100.00
14067;BME280;7108;42.684;23.350;2023-03-20T07:31:31;95627.22;;;10.77;100.00
14067;BME280;7108;42.684;23.350;2023-03-20T07:33:56;95629.81;;;10.89;100.00
14067;BME280;7108;42.684;23.350;2023-03-20T07:36:22;95618.41;;;10.95;100.00
14067;BME280;7108;42.684;23.350;2023-03-20T07:38:50;95611.47;;;10.94;100.00
14067;BME280;7108;42.684;23.350;2023-03-20T07:41:15;95630.06;;;11.14;100.00
14067;BME280;7108;42.684;23.350;2023-03-20T07:43:41;95626.53;;;11.29;100.00
14067;BME280;7108;42.684;23.350;2023-03-20T07:46:07;95602.28;;;11.14;100.00
14067;BME280;7108;42.684;23.350;2023-03-20T07:48:36;95629.63;;;11.47;100.00
14067;BME280;7108;42.684;23.350;2023-03-20T07:51:01;95624.69;;;11.68;100.00
14067;BME280;7108;42.684;23.350;2023-03-20T07:53:27;95623.22;;;11.89;100.00
14067;BME280;7108;42.684;23.350;2023-03-20T07:55:52;95596.66;;;11.91;100.00
14067;BME280;7108;42.684;23.350;2023-03-20T07:58:18;95614.16;;;12.00;100.00
14067;BME280;7108;42.684;23.350;2023-03-20T08:00:46;95626.19;;;12.22;100.00
14067;BME280;7108;42.684;23.350;2023-03-20T08:03:12;95602.38;;;12.08;100.00
14067;BME280;7108;42.684;23.350;2023-03-20T08:05:37;95621.94;;;12.43;100.00
14067;BME280;7108;42.684;23.350;2023-03-20T08:08:03;95615.91;;;12.49;100.00
14067;BME280;7108;42.684;23.350;2023-03-20T08:10:28;95603.91;;;12.50;100.00
14067;BME280;7108;42.684;23.350;2023-03-20T08:12:54;95620.56;;;12.75;100.00
14067;BME280;7108;42.684;23.350;2023-03-20T08:15:20;95596.28;;;12.78;100.00
14067;BME280;7108;42.684;23.350;2023-03-20T08:17:46;95583.00;;;12.92;100.00
14067;BME280;7108;42.684;23.350;2023-03-20T08:20:15;95619.13;;;13.29;100.00
14067;BME280;7108;42.684;23.350;2023-03-20T08:22:43;95597.28;;;13.15;100.00
14067;BME280;7108;42.684;23.350;2023-03-20T08:25:11;95617.09;;;13.48;100.00
14067;BME280;7108;42.684;23.350;2023-03-20T08:27:37;95622.94;;;13.50;100.00
14067;BME280;7108;42.684;23.350;2023-03-20T08:30:03;95621.00;;;13.51;100.00
14067;BME280;7108;42.684;23.350;2023-03-20T08:32:29;95618.44;;;13.61;100.00
14067;BME280;7108;42.684;23.350;2023-03-20T08:34:55;95595.06;;;13.50;99.72
14067;BME280;7108;42.684;23.350;2023-03-20T08:37:21;95613.16;;;13.72;95.59
14067;BME280;7108;42.684;23.350;2023-03-20T08:39:46;95613.28;;;13.82;96.48
14067;BME280;7108;42.684;23.350;2023-03-20T08:42:12;95600.16;;;13.84;95.19
14067;BME280;7108;42.684;23.350;2023-03-20T08:44:38;95618.31;;;14.09;96.60
14067;BME280;7108;42.684;23.350;2023-03-20T08:47:04;95617.72;;;14.26;97.01
14067;BME280;7108;42.684;23.350;2023-03-20T08:49:32;95605.53;;;14.43;99.26
14067;BME280;7108;42.684;23.350;2023-03-20T08:51:58;95567.44;;;14.32;93.51
14067;BME280;7108;42.684;23.350;2023-03-20T08:54:24;95611.06;;;14.56;88.86
14067;BME280;7108;42.684;23.350;2023-03-20T08:56:49;95601.88;;;14.64;91.17
14067;BME280;7108;42.684;23.350;2023-03-20T08:59:15;95589.03;;;14.61;87.04
14067;BME280;7108;42.684;23.350;2023-03-20T09:01:41;95558.22;;;14.37;87.43
14067;BME280;7108;42.684;23.350;2023-03-20T09:04:06;95593.19;;;14.48;83.84
14067;BME280;7108;42.684;23.350;2023-03-20T09:06:35;95603.41;;;14.62;91.01
14067;BME280;7108;42.684;23.350;2023-03-20T09:09:04;95569.50;;;14.45;86.78
14067;BME280;7108;42.684;23.350;2023-03-20T09:11:30;95573.94;;;14.64;87.48
14067;BME280;7108;42.684;23.350;2023-03-20T09:13:55;95564.66;;;14.65;85.02
14067;BME280;7108;42.684;23.350;2023-03-20T09:16:20;95577.84;;;14.66;82.19
14067;BME280;7108;42.684;23.350;2023-03-20T09:18:46;95576.34;;;14.72;84.38
14067;BME280;7108;42.684;23.350;2023-03-20T09:21:11;95579.25;;;14.50;81.13
14067;BME280;7108;42.684;23.350;2023-03-20T09:23:37;95585.41;;;14.47;84.04
14067;BME280;7108;42.684;23.350;2023-03-20T09:26:02;95575.09;;;14.59;85.58
14067;BME280;7108;42.684;23.350;2023-03-20T09:28:30;95568.91;;;14.62;88.09
14067;BME280;7108;42.684;23.350;2023-03-20T09:30:56;95573.59;;;14.69;85.83
14067;BME280;7108;42.684;23.350;2023-03-20T09:33:22;95560.38;;;14.64;84.57
14067;BME280;7108;42.684;23.350;2023-03-20T09:35:48;95550.56;;;14.49;84.16
14067;BME280;7108;42.684;23.350;2023-03-20T09:38:13;95541.19;;;14.40;83.95
14067;BME280;7108;42.684;23.350;2023-03-20T09:40:54;95548.94;;;14.38;90.04
14067;BME280;7108;42.684;23.350;2023-03-20T09:51:37;95533.38;;;14.78;85.38
14067;BME280;7108;42.684;23.350;2023-03-20T09:54:35;95524.53;;;14.84;84.74
14067;BME280;7108;42.684;23.350;2023-03-20T09:57:03;95490.66;;;14.64;85.54
14067;BME280;7108;42.684;23.350;2023-03-20T09:59:33;95501.69;;;14.92;85.38
14067;BME280;7108;42.684;23.350;2023-03-20T10:05:28;95487.88;;;15.11;82.81
14067;BME280;7108;42.684;23.350;2023-03-20T10:07:57;95487.22;;;15.24;78.92
14067;BME280;7108;42.684;23.350;2023-03-20T10:10:49;95482.19;;;15.30;79.16
14067;BME280;7108;42.684;23.350;2023-03-20T10:13:29;95488.84;;;15.39;79.09
14067;BME280;7108;42.684;23.350;2023-03-20T10:18:48;95469.41;;;15.37;77.17
14067;BME280;7108;42.684;23.350;2023-03-20T10:21:21;95469.50;;;15.58;76.40
14067;BME280;7108;42.684;23.350;2023-03-20T10:24:05;95467.59;;;15.69;79.69
14067;BME280;7108;42.684;23.350;2023-03-20T10:26:35;95469.59;;;15.93;76.34
14067;BME280;7108;42.684;23.350;2023-03-20T10:42:44;95442.06;;;16.78;70.93
14067;BME280;7108;42.684;23.350;2023-03-20T10:45:30;95445.94;;;16.94;66.00
14067;BME280;7108;42.684;23.350;2023-03-20T10:48:02;95428.06;;;16.97;66.78
14067;BME280;7108;42.684;23.350;2023-03-20T10:50:39;95427.59;;;17.15;64.61
14067;BME280;7108;42.684;23.350;2023-03-20T10:53:06;95421.38;;;17.25;64.72
14067;BME280;7108;42.684;23.350;2023-03-20T10:55:41;95422.53;;;17.28;65.61
14067;BME280;7108;42.684;23.350;2023-03-20T10:58:29;95416.22;;;17.48;66.18
14067;BME280;7108;42.684;23.350;2023-03-20T11:00:57;95423.56;;;17.65;62.66
14067;BME280;7108;42.684;23.350;2023-03-20T11:03:28;95411.81;;;17.75;59.83
14067;BME280;7108;42.684;23.350;2023-03-20T11:06:08;95402.88;;;17.71;57.75
14067;BME280;7108;42.684;23.350;2023-03-20T11:08:40;95413.72;;;17.85;55.12
14067;BME280;7108;42.684;23.350;2023-03-20T11:11:06;95378.84;;;17.56;55.05
14067;BME280;7108;42.684;23.350;2023-03-20T11:13:34;95385.00;;;17.67;57.39
14067;BME280;7108;42.684;23.350;2023-03-20T11:18:40;95387.88;;;18.03;57.49
14067;BME280;7108;42.684;23.350;2023-03-20T11:21:12;95380.41;;;18.14;54.81
14067;BME280;7108;42.684;23.350;2023-03-20T11:23:38;95358.19;;;18.12;53.73
14067;BME280;7108;42.684;23.350;2023-03-20T11:26:09;95382.31;;;18.21;52.31
14067;BME280;7108;42.684;23.350;2023-03-20T11:28:52;95368.22;;;18.29;49.97
14067;BME280;7108;42.684;23.350;2023-03-20T11:31:24;95354.28;;;18.17;50.10
14067;BME280;7108;42.684;23.350;2023-03-20T11:34:08;95349.47;;;18.35;50.82
14067;BME280;7108;42.684;23.350;2023-03-20T11:36:35;95324.13;;;18.34;49.40
14067;BME280;7108;42.684;23.350;2023-03-20T11:39:09;95358.56;;;18.61;50.27
14067;BME280;7108;42.684;23.350;2023-03-20T11:46:56;95337.84;;;19.01;44.44
14067;BME280;7108;42.684;23.350;2023-03-20T11:49:22;95330.38;;;19.05;44.20
14067;BME280;7108;42.684;23.350;2023-03-20T11:52:12;95328.50;;;19.02;45.68
14067;BME280;7108;42.684;23.350;2023-03-20T11:54:39;95314.00;;;19.05;45.76
14067;BME280;7108;42.684;23.350;2023-03-20T11:59:53;95310.53;;;19.34;44.14
14067;BME280;7108;42.684;23.350;2023-03-20T12:02:21;95299.91;;;19.39;42.26
14067;BME280;7108;42.684;23.350;2023-03-20T12:04:48;95299.41;;;19.48;41.18
14067;BME280;7108;42.684;23.350;2023-03-20T12:07:24;95300.53;;;19.50;41.86
14067;BME280;7108;42.684;23.350;2023-03-20T12:10:04;95299.97;;;19.62;43.23
14067;BME280;7108;42.684;23.350;2023-03-20T12:12:46;95273.88;;;19.58;40.88
14067;BME280;7108;42.684;23.350;2023-03-20T12:23:41;95277.31;;;20.14;39.59
14067;BME280;7108;42.684;23.350;2023-03-20T12:29:05;95276.75;;;20.23;34.76
14067;BME280;7108;42.684;23.350;2023-03-20T12:31:50;95276.94;;;20.12;33.96
14067;BME280;7108;42.684;23.350;2023-03-20T12:34:20;95275.03;;;20.09;34.91
14067;BME280;7108;42.684;23.350;2023-03-20T12:36:48;95267.66;;;20.06;35.13
14067;BME280;7108;42.684;23.350;2023-03-20T12:39:16;95266.16;;;20.02;33.43
14067;BME280;7108;42.684;23.350;2023-03-20T12:58:14;95227.25;;;20.37;31.78
14067;BME280;7108;42.684;23.350;2023-03-20T13:03:27;95231.25;;;20.32;31.04
14067;BME280;7108;42.684;23.350;2023-03-20T13:06:17;95221.34;;;20.38;31.62
14067;BME280;7108;42.684;23.350;2023-03-20T13:09:04;95215.25;;;20.31;31.21
14067;BME280;7108;42.684;23.350;2023-03-20T13:11:47;95223.81;;;20.33;31.01
14067;BME280;7108;42.684;23.350;2023-03-20T13:27:58;95197.66;;;20.09;31.96
14067;BME280;7108;42.684;23.350;2023-03-20T13:38:29;95190.16;;;20.13;30.36
14067;BME280;7108;42.684;23.350;2023-03-20T13:41:03;95187.84;;;20.11;31.75
14067;BME280;7108;42.684;23.350;2023-03-20T13:43:36;95165.13;;;19.91;30.79
14067;BME280;7108;42.684;23.350;2023-03-20T13:46:05;95181.03;;;20.00;30.30
14067;BME280;7108;42.684;23.350;2023-03-20T13:48:33;95180.66;;;19.98;30.97
14067;BME280;7108;42.684;23.350;2023-03-20T13:59:00;95175.31;;;19.68;31.10
14067;BME280;7108;42.684;23.350;2023-03-20T14:04:27;95165.75;;;19.57;31.85
14067;BME280;7108;42.684;23.350;2023-03-20T14:06:57;95163.78;;;19.57;33.12
14067;BME280;7108;42.684;23.350;2023-03-20T14:11:53;95149.81;;;19.52;32.05
14067;BME280;7108;42.684;23.350;2023-03-20T14:14:31;95138.56;;;19.46;32.26
14067;BME280;7108;42.684;23.350;2023-03-20T14:17:23;95150.38;;;19.63;30.99
14067;BME280;7108;42.684;23.350;2023-03-20T14:19:48;95156.13;;;19.72;31.25
14067;BME280;7108;42.684;23.350;2023-03-20T14:22:35;95143.63;;;19.71;29.23
14067;BME280;7108;42.684;23.350;2023-03-20T14:25:05;95142.13;;;19.66;30.67
14067;BME280;7108;42.684;23.350;2023-03-20T14:28:40;95136.72;;;19.63;30.17
14067;BME280;7108;42.684;23.350;2023-03-20T14:35:42;95133.75;;;19.54;30.28
14067;BME280;7108;42.684;23.350;2023-03-20T14:41:18;95128.81;;;19.45;30.24
14067;BME280;7108;42.684;23.350;2023-03-20T14:46:41;95131.88;;;19.51;30.32
14067;BME280;7108;42.684;23.350;2023-03-20T14:49:23;95102.38;;;19.39;30.90
14067;BME280;7108;42.684;23.350;2023-03-20T14:51:52;95117.78;;;19.52;30.57
14067;BME280;7108;42.684;23.350;2023-03-20T14:54:28;95090.75;;;19.35;31.00
14067;BME280;7108;42.684;23.350;2023-03-20T14:56:54;95114.50;;;19.38;30.47
14067;BME280;7108;42.684;23.350;2023-03-20T14:59:22;95127.41;;;19.37;31.70
14067;BME280;7108;42.684;23.350;2023-03-20T15:01:58;95118.78;;;19.39;31.00
14067;BME280;7108;42.684;23.350;2023-03-20T15:04:50;95113.66;;;19.18;31.26
14067;BME280;7108;42.684;23.350;2023-03-20T15:09:50;95102.91;;;19.08;30.71
14067;BME280;7108;42.684;23.350;2023-03-20T15:12:23;95114.84;;;19.17;31.08
14067;BME280;7108;42.684;23.350;2023-03-20T15:15:02;95112.03;;;18.98;34.77
14067;BME280;7108;42.684;23.350;2023-03-20T15:17:40;95124.22;;;18.90;36.34
14067;BME280;7108;42.684;23.350;2023-03-20T15:20:26;95121.28;;;18.77;37.72
14067;BME280;7108;42.684;23.350;2023-03-20T15:22:57;95117.56;;;18.64;38.20
14067;BME280;7108;42.684;23.350;2023-03-20T15:25:38;95113.34;;;18.60;35.08
14067;BME280;7108;42.684;23.350;2023-03-20T15:28:11;95118.09;;;18.56;36.16
14067;BME280;7108;42.684;23.350;2023-03-20T15:30:38;95121.19;;;18.54;36.68
14067;BME280;7108;42.684;23.350;2023-03-20T15:33:04;95112.72;;;18.49;35.18
14067;BME280;7108;42.684;23.350;2023-03-20T15:35:30;95096.56;;;18.32;37.76
14067;BME280;7108;42.684;23.350;2023-03-20T15:37:57;95110.66;;;18.27;40.17